Time;durP1;ratioP1;P1;durP2;ratioP2;P2;SDS_P1;SDS_P2;PMS_P1;PMS_P2;Temp;Humidity;BMP_temperature;BMP_pressure;BME280_temperature;BME280_humidity;BME280_pressure;Samples;Min_cycle;Max_cycle;Signal;HPM_P1;HPM_P2
2021/05/11 00:01:05;;;;;;;0.05;0.05;;;;;;;;;;5116958;27;20213;-71
2021/05/11 00:03:31;;;;;;;0.10;0.10;;;;;;;;;;5124688;28;20269;-72
2021/05/11 00:05:57;;;;;;;0.00;0.00;;;;;;;;;;5124489;28;20205;-71
2021/05/11 00:08:22;;;;;;;0.00;0.00;;;;;;;;;;5125840;27;20220;-72
2021/05/11 00:10:49;;;;;;;0.00;0.00;;;;;;;;;;5142859;27;20210;-71
2021/05/11 00:13:15;;;;;;;0.10;0.10;;;;;;;;;;5129826;27;20385;-72
2021/05/11 00:15:41;;;;;;;0.00;0.00;;;;;;;;;;5124211;28;20205;-72
2021/05/11 00:18:07;;;;;;;0.10;0.10;;;;;;;;;;5123171;28;20421;-72
2021/05/11 00:20:32;;;;;;;0.00;0.00;;;;;;;;;;5124306;28;20389;-72
2021/05/11 00:22:58;;;;;;;0.00;0.00;;;;;;;;;;5123927;28;20209;-71
2021/05/11 00:25:24;;;;;;;0.00;0.00;;;;;;;;;;5124082;28;20209;-72
2021/05/11 00:27:51;;;;;;;0.00;0.00;;;;;;;;;;5124008;28;20274;-71
2021/05/11 00:30:17;;;;;;;0.00;0.00;;;;;;;;;;5123733;28;20212;-72
2021/05/11 00:32:43;;;;;;;0.05;0.05;;;;;;;;;;5121892;28;20231;-72
2021/05/11 00:35:09;;;;;;;0.00;0.00;;;;;;;;;;5132641;28;20227;-72
2021/05/11 00:37:36;;;;;;;0.00;0.00;;;;;;;;;;5113139;28;20208;-72
2021/05/11 00:40:02;;;;;;;0.10;0.10;;;;;;;;;;5120588;28;20419;-72
2021/05/11 00:42:28;;;;;;;0.08;0.08;;;;;;;;;;5123972;28;20203;-73
2021/05/11 00:44:54;;;;;;;0.00;0.00;;;;;;;;;;5124175;28;20305;-71
2021/05/11 00:47:20;;;;;;;0.10;0.10;;;;;;;;;;5123972;28;20230;-72
2021/05/11 00:49:48;;;;;;;0.00;0.00;;;;;;;;;;5122165;28;20321;-72
2021/05/11 00:52:14;;;;;;;0.10;0.10;;;;;;;;;;5124152;28;20275;-73
2021/05/11 00:54:40;;;;;;;0.00;0.00;;;;;;;;;;5124145;28;20237;-72
2021/05/11 00:57:06;;;;;;;0.10;0.10;;;;;;;;;;5123653;28;20281;-72
2021/05/11 00:59:32;;;;;;;0.00;0.00;;;;;;;;;;5123337;28;20195;-73
2021/05/11 01:01:59;;;;;;;0.08;0.08;;;;;;;;;;5115990;28;20205;-72
2021/05/11 01:04:26;;;;;;;0.08;0.08;;;;;;;;;;5116714;28;20501;-72
2021/05/11 01:06:52;;;;;;;0.00;0.00;;;;;;;;;;5129235;28;20541;-72
2021/05/11 01:09:18;;;;;;;0.10;0.10;;;;;;;;;;5132119;28;20298;-72
2021/05/11 01:11:45;;;;;;;0.00;0.00;;;;;;;;;;5123352;28;20206;-72
2021/05/11 01:14:11;;;;;;;0.00;0.00;;;;;;;;;;5123204;28;20227;-71
2021/05/11 01:16:37;;;;;;;0.08;0.08;;;;;;;;;;5123652;28;20209;-72
2021/05/11 01:19:09;;;;;;;0.08;0.08;;;;;;;;;;5123439;28;20227;-71
2021/05/11 01:21:41;;;;;;;0.10;0.10;;;;;;;;;;5122650;28;20204;-71
2021/05/11 01:24:10;;;;;;;0.10;0.10;;;;;;;;;;5117323;28;20205;-72
2021/05/11 01:26:44;;;;;;;0.00;0.00;;;;;;;;;;5129381;28;20195;-72
2021/05/11 01:29:21;;;;;;;0.00;0.00;;;;;;;;;;5123464;28;20516;-72
2021/05/11 01:48:27;;;;;;;0.10;0.10;;;;;;;;;;5116145;28;20211;-72
2021/05/11 01:51:07;;;;;;;0.00;0.00;;;;;;;;;;5126738;28;20232;-72
2021/05/11 01:53:49;;;;;;;0.00;0.00;;;;;;;;;;5125575;27;20501;-71
2021/05/11 01:56:35;;;;;;;0.10;0.10;;;;;;;;;;5126607;28;20206;-72
2021/05/11 01:59:27;;;;;;;0.00;0.00;;;;;;;;;;5126503;28;20206;-72
2021/05/11 02:10:32;;;;;;;0.03;0.03;;;;;;;;;;5132470;27;20200;-71
2021/05/11 02:23:51;;;;;;;0.10;0.10;;;;;;;;;;5129651;27;20219;-72
2021/05/11 02:26:17;;;;;;;0.10;0.10;;;;;;;;;;5126038;28;20201;-73
2021/05/11 02:28:43;;;;;;;0.10;0.10;;;;;;;;;;5126260;28;20509;-71
2021/05/11 02:31:09;;;;;;;0.00;0.00;;;;;;;;;;5127477;27;20513;-72
2021/05/11 02:33:35;;;;;;;0.03;0.03;;;;;;;;;;5127722;27;20220;-73
2021/05/11 02:36:00;;;;;;;0.00;0.00;;;;;;;;;;5125984;28;20222;-73
2021/05/11 02:38:26;;;;;;;0.00;0.00;;;;;;;;;;5126120;28;20195;-73
2021/05/11 02:40:52;;;;;;;0.00;0.00;;;;;;;;;;5124668;28;20368;-73
2021/05/11 02:43:21;;;;;;;0.00;0.00;;;;;;;;;;5125906;28;20520;-73
2021/05/11 02:45:47;;;;;;;0.00;0.00;;;;;;;;;;5125989;28;20208;-72
2021/05/11 02:48:13;;;;;;;0.10;0.10;;;;;;;;;;5125499;28;20249;-72
2021/05/11 02:50:39;;;;;;;0.00;0.00;;;;;;;;;;5124424;28;20383;-71
2021/05/11 02:53:05;;;;;;;0.10;0.10;;;;;;;;;;5125969;28;20205;-73
2021/05/11 02:55:31;;;;;;;0.00;0.00;;;;;;;;;;5124302;28;20200;-73
2021/05/11 02:57:57;;;;;;;0.10;0.10;;;;;;;;;;5125567;28;20196;-72
2021/05/11 03:00:24;;;;;;;0.03;0.03;;;;;;;;;;5125969;28;20201;-72
2021/05/11 03:02:51;;;;;;;0.00;0.00;;;;;;;;;;5125182;28;20234;-72
2021/05/11 03:05:17;;;;;;;0.03;0.03;;;;;;;;;;5125191;28;20206;-71
2021/05/11 03:07:43;;;;;;;0.00;0.00;;;;;;;;;;5137700;27;20232;-72
2021/05/11 03:10:10;;;;;;;0.10;0.10;;;;;;;;;;5127576;27;20204;-72
2021/05/11 03:12:36;;;;;;;0.07;0.07;;;;;;;;;;5123356;28;20504;-73
2021/05/11 03:15:03;;;;;;;0.10;0.10;;;;;;;;;;5125111;28;20251;-72
2021/05/11 03:17:29;;;;;;;0.00;0.00;;;;;;;;;;5125355;28;20196;-73
2021/05/11 03:19:55;;;;;;;0.10;0.10;;;;;;;;;;5125093;28;20260;-72
2021/05/11 03:22:21;;;;;;;0.00;0.00;;;;;;;;;;5125197;28;20204;-72
2021/05/11 03:24:47;;;;;;;0.00;0.00;;;;;;;;;;5125134;28;20197;-72
2021/05/11 03:27:13;;;;;;;0.00;0.00;;;;;;;;;;5124100;28;20228;-71
2021/05/11 03:29:39;;;;;;;0.10;0.10;;;;;;;;;;5136692;27;20418;-72
2021/05/11 03:32:06;;;;;;;0.10;0.10;;;;;;;;;;5124749;28;20223;-73
2021/05/11 03:34:32;;;;;;;0.03;0.03;;;;;;;;;;5124958;28;20348;-72
2021/05/11 03:36:58;;;;;;;0.30;0.30;;;;;;;;;;5126964;27;20223;-72
2021/05/11 03:39:24;;;;;;;0.00;0.00;;;;;;;;;;5125081;28;20240;-72
2021/05/11 03:41:53;;;;;;;0.10;0.10;;;;;;;;;;5124503;28;20208;-72
2021/05/11 03:44:21;;;;;;;0.10;0.10;;;;;;;;;;5123551;28;20200;-72
2021/05/11 03:46:47;;;;;;;0.00;0.00;;;;;;;;;;5124774;28;20305;-72
2021/05/11 03:49:13;;;;;;;0.10;0.10;;;;;;;;;;5126269;27;20346;-71
2021/05/11 03:51:39;;;;;;;0.10;0.10;;;;;;;;;;5124673;28;20267;-72
2021/05/11 03:54:06;;;;;;;0.00;0.00;;;;;;;;;;5124707;28;20220;-73
2021/05/11 03:56:32;;;;;;;0.10;0.10;;;;;;;;;;5124423;28;20208;-71
2021/05/11 03:58:58;;;;;;;0.10;0.10;;;;;;;;;;5123745;28;20416;-72
2021/05/11 04:01:24;;;;;;;0.10;0.10;;;;;;;;;;5123686;28;20204;-72
2021/05/11 04:03:50;;;;;;;0.00;0.00;;;;;;;;;;5123911;28;20204;-71
2021/05/11 04:06:16;;;;;;;0.00;0.00;;;;;;;;;;5123776;28;20234;-72
2021/05/11 04:08:45;;;;;;;0.03;0.03;;;;;;;;;;5123706;28;20609;-72
2021/05/11 04:14:12;;;;;;;0.10;0.10;;;;;;;;;;5100407;28;20240;-72
2021/05/11 04:16:38;;;;;;;0.03;0.03;;;;;;;;;;5123226;28;20261;-73
2021/05/11 04:19:04;;;;;;;0.10;0.10;;;;;;;;;;5132497;27;20201;-72
2021/05/11 04:21:30;;;;;;;0.07;0.07;;;;;;;;;;5125859;27;20193;-72
2021/05/11 04:23:56;;;;;;;0.00;0.00;;;;;;;;;;5124308;28;20204;-73
2021/05/11 04:26:23;;;;;;;0.00;0.00;;;;;;;;;;5124294;28;20248;-72
2021/05/11 04:28:49;;;;;;;0.10;0.10;;;;;;;;;;5123957;28;20256;-72
2021/05/11 04:31:15;;;;;;;0.07;0.07;;;;;;;;;;5129240;28;20204;-73
2021/05/11 04:33:41;;;;;;;0.10;0.10;;;;;;;;;;5124012;28;20496;-72
2021/05/11 04:36:07;;;;;;;0.00;0.00;;;;;;;;;;5124164;28;20220;-72
2021/05/11 04:38:34;;;;;;;0.00;0.00;;;;;;;;;;5125330;28;20200;-72
2021/05/11 04:40:59;;;;;;;0.00;0.00;;;;;;;;;;5123955;28;20258;-74
2021/05/11 04:43:28;;;;;;;0.00;0.00;;;;;;;;;;5123882;28;20213;-73
2021/05/11 04:46:04;;;;;;;0.10;0.10;;;;;;;;;;5109453;28;20210;-72
2021/05/11 04:48:30;;;;;;;0.10;0.10;;;;;;;;;;5121937;28;20232;-72
2021/05/11 04:50:56;;;;;;;0.00;0.00;;;;;;;;;;5124361;28;20198;-72
2021/05/11 04:53:23;;;;;;;0.00;0.00;;;;;;;;;;5124049;28;20307;-72
2021/05/11 04:55:48;;;;;;;0.03;0.03;;;;;;;;;;5124685;28;20236;-71
2021/05/11 04:58:14;;;;;;;0.10;0.10;;;;;;;;;;5124050;28;20460;-72
2021/05/11 05:00:41;;;;;;;0.00;0.00;;;;;;;;;;5137476;28;20549;-72
2021/05/11 05:03:09;;;;;;;0.10;0.10;;;;;;;;;;5118493;28;20233;-71
2021/05/11 05:05:35;;;;;;;0.07;0.07;;;;;;;;;;5124005;28;20234;-72
2021/05/11 05:08:01;;;;;;;0.08;0.08;;;;;;;;;;5123798;28;20413;-74
2021/05/11 05:10:27;;;;;;;0.00;0.00;;;;;;;;;;5133889;27;20212;-71
2021/05/11 05:12:53;;;;;;;0.00;0.00;;;;;;;;;;5127615;28;20511;-72
2021/05/11 05:15:18;;;;;;;0.10;0.10;;;;;;;;;;5137509;27;20297;-72
2021/05/11 05:17:45;;;;;;;0.10;0.10;;;;;;;;;;5138059;27;20271;-72
2021/05/11 05:20:11;;;;;;;0.00;0.00;;;;;;;;;;5129591;27;20308;-72
2021/05/11 05:22:37;;;;;;;0.10;0.10;;;;;;;;;;5127435;28;20391;-72
2021/05/11 05:25:10;;;;;;;0.03;0.03;;;;;;;;;;5127491;28;20204;-73
2021/05/11 05:27:44;;;;;;;0.10;0.10;;;;;;;;;;5127232;28;20285;-72
2021/05/11 05:30:10;;;;;;;0.03;0.03;;;;;;;;;;5127086;28;20204;-73
2021/05/11 05:32:36;;;;;;;0.10;0.10;;;;;;;;;;5127205;28;20226;-72
2021/05/11 05:35:03;;;;;;;0.08;0.08;;;;;;;;;;5126353;28;20229;-72
2021/05/11 05:37:29;;;;;;;0.10;0.10;;;;;;;;;;5127007;28;20210;-72
2021/05/11 05:39:57;;;;;;;0.00;0.00;;;;;;;;;;5127268;28;20424;-73
2021/05/11 05:42:23;;;;;;;0.10;0.10;;;;;;;;;;5127089;28;20365;-72
2021/05/11 05:44:49;;;;;;;0.10;0.10;;;;;;;;;;5127213;28;20290;-73
2021/05/11 05:47:15;;;;;;;0.10;0.10;;;;;;;;;;5112496;28;20509;-72
2021/05/11 05:49:44;;;;;;;0.08;0.08;;;;;;;;;;5127293;28;20397;-73
2021/05/11 05:52:16;;;;;;;0.08;0.08;;;;;;;;;;5126267;27;20225;-73
2021/05/11 05:54:42;;;;;;;0.00;0.00;;;;;;;;;;5127406;28;20235;-72
2021/05/11 05:57:08;;;;;;;0.10;0.10;;;;;;;;;;5114369;28;20412;-73
2021/05/11 05:59:34;;;;;;;0.10;0.10;;;;;;;;;;5125212;27;20194;-75
2021/05/11 06:02:00;;;;;;;0.10;0.10;;;;;;;;;;5131510;27;20404;-72
2021/05/11 06:04:26;;;;;;;0.00;0.00;;;;;;;;;;5126643;28;20198;-72
2021/05/11 06:06:52;;;;;;;0.00;0.00;;;;;;;;;;5125367;27;20550;-71
2021/05/11 06:09:20;;;;;;;0.05;0.05;;;;;;;;;;5131439;27;20528;-72
2021/05/11 06:11:49;;;;;;;0.03;0.03;;;;;;;;;;5127800;27;20212;-73
2021/05/11 06:14:21;;;;;;;0.00;0.00;;;;;;;;;;5124288;27;20484;-68
2021/05/11 06:19:31;;;;;;;0.00;0.00;;;;;;;;;;5129788;27;20201;-65
2021/05/11 06:21:57;;;;;;;0.10;0.10;;;;;;;;;;5128592;27;20485;-67
2021/05/11 06:24:23;;;;;;;0.00;0.00;;;;;;;;;;5130062;27;20198;-65
2021/05/11 06:26:51;;;;;;;0.10;0.10;;;;;;;;;;5129548;27;20247;-66
2021/05/11 06:29:18;;;;;;;0.00;0.00;;;;;;;;;;5130921;27;20225;-68
2021/05/11 06:31:44;;;;;;;0.00;0.00;;;;;;;;;;5128370;27;20236;-68
2021/05/11 06:34:10;;;;;;;0.10;0.10;;;;;;;;;;5129531;27;20485;-67
2021/05/11 06:36:36;;;;;;;0.10;0.10;;;;;;;;;;5139771;27;20215;-71
2021/05/11 06:39:04;;;;;;;0.00;0.00;;;;;;;;;;5128581;27;20483;-69
2021/05/11 06:41:31;;;;;;;0.08;0.08;;;;;;;;;;5125749;28;20204;-68
2021/05/11 06:44:02;;;;;;;0.10;0.10;;;;;;;;;;5120717;28;20270;-65
2021/05/11 06:49:31;;;;;;;0.10;0.10;;;;;;;;;;5125739;27;20223;-67
2021/05/11 06:54:40;;;;;;;0.00;0.00;;;;;;;;;;5120654;27;20268;-67
2021/05/11 06:57:07;;;;;;;0.00;0.00;;;;;;;;;;5125477;28;20376;-67
2021/05/11 06:59:34;;;;;;;0.10;0.10;;;;;;;;;;5125411;28;20219;-66
2021/05/11 07:02:00;;;;;;;0.00;0.00;;;;;;;;;;5124143;27;20199;-66
2021/05/11 07:04:27;;;;;;;0.00;0.00;;;;;;;;;;5130709;27;20216;-66
2021/05/11 07:06:53;;;;;;;0.00;0.00;;;;;;;;;;5125393;28;20268;-66
2021/05/11 07:09:27;;;;;;;0.10;0.10;;;;;;;;;;5125281;28;20381;-68
2021/05/11 07:14:37;;;;;;;0.00;0.00;;;;;;;;;;5121395;28;20238;-67
2021/05/11 07:17:03;;;;;;;0.10;0.10;;;;;;;;;;5124799;27;20203;-67
2021/05/11 07:19:29;;;;;;;0.00;0.00;;;;;;;;;;5125376;28;20482;-66
2021/05/11 07:21:55;;;;;;;0.10;0.10;;;;;;;;;;5133559;27;20263;-67
2021/05/11 07:24:26;;;;;;;0.00;0.00;;;;;;;;;;5132817;27;20209;-68
2021/05/11 07:27:10;;;;;;;0.10;0.10;;;;;;;;;;5139031;27;20207;-67
2021/05/11 07:29:44;;;;;;;0.10;0.10;;;;;;;;;;5124942;28;20529;-65
2021/05/11 07:32:11;;;;;;;0.00;0.00;;;;;;;;;;5122340;28;20407;-68
2021/05/11 07:34:41;;;;;;;0.00;0.00;;;;;;;;;;5125016;28;20219;-67
2021/05/11 07:37:07;;;;;;;0.08;0.08;;;;;;;;;;5124145;28;20212;-67
2021/05/11 07:39:33;;;;;;;0.10;0.10;;;;;;;;;;5124675;28;20210;-68
2021/05/11 07:42:00;;;;;;;0.00;0.00;;;;;;;;;;5124440;28;20205;-68
2021/05/11 07:44:26;;;;;;;0.00;0.00;;;;;;;;;;5144330;27;20419;-67
2021/05/11 07:46:56;;;;;;;0.00;0.00;;;;;;;;;;5130933;27;20227;-67
2021/05/11 07:49:41;;;;;;;0.00;0.00;;;;;;;;;;5127904;27;20211;-66
2021/05/11 07:56:28;;;;;;;0.00;0.00;;;;;;;;;;5128326;27;20196;-66
2021/05/11 08:03:44;;;;;;;0.00;0.00;;;;;;;;;;5124069;28;20242;-66
2021/05/11 08:14:46;;;;;;;0.00;0.00;;;;;;;;;;5124177;28;20211;-69
2021/05/11 08:17:14;;;;;;;0.10;0.10;;;;;;;;;;5123870;28;20195;-68
2021/05/11 08:19:56;;;;;;;0.00;0.00;;;;;;;;;;5126763;27;20547;-68
2021/05/11 08:27:56;;;;;;;0.00;0.00;;;;;;;;;;5117671;28;20538;-69
2021/05/11 08:30:22;;;;;;;0.00;0.00;;;;;;;;;;5130002;27;20205;-68
2021/05/11 08:32:48;;;;;;;0.05;0.05;;;;;;;;;;5123694;28;20401;-68
2021/05/11 08:35:14;;;;;;;0.00;0.00;;;;;;;;;;5123716;28;20204;-65
2021/05/11 08:37:41;;;;;;;0.00;0.00;;;;;;;;;;5125681;28;20217;-65
2021/05/11 08:40:07;;;;;;;0.00;0.00;;;;;;;;;;5132930;28;20208;-69
2021/05/11 08:42:34;;;;;;;0.00;0.00;;;;;;;;;;5123611;28;20212;-72
2021/05/11 08:45:02;;;;;;;0.00;0.00;;;;;;;;;;5124077;28;20389;-70
2021/05/11 08:47:28;;;;;;;0.00;0.00;;;;;;;;;;5136074;28;20200;-70
2021/05/11 08:49:54;;;;;;;0.10;0.10;;;;;;;;;;5126872;28;20229;-70
2021/05/11 08:52:26;;;;;;;0.00;0.00;;;;;;;;;;5132007;27;20547;-70
2021/05/11 08:55:13;;;;;;;0.00;0.00;;;;;;;;;;5134205;27;20260;-70
2021/05/11 09:09:05;;;;;;;0.00;0.00;;;;;;;;;;5123401;27;20225;-71
2021/05/11 09:25:36;;;;;;;0.00;0.00;;;;;;;;;;5131378;27;20295;-70
2021/05/11 09:28:16;;;;;;;0.00;0.00;;;;;;;;;;5126729;28;20222;-70
2021/05/11 09:30:55;;;;;;;0.00;0.00;;;;;;;;;;5126732;28;20260;-70
2021/05/11 09:33:27;;;;;;;0.00;0.00;;;;;;;;;;5126420;27;20228;-70
2021/05/11 09:56:03;;;;;;;0.00;0.00;;;;;;;;;;5129310;27;20197;-70
2021/05/11 09:58:55;;;;;;;0.32;0.32;;;;;;;;;;5122797;28;20202;-70
2021/05/11 10:41:52;;;;;;;0.00;0.00;;;;;;;;;;5128342;27;20213;-68
2021/05/11 10:44:43;;;;;;;0.00;0.00;;;;;;;;;;5125942;28;20194;-68
2021/05/11 10:47:13;;;;;;;0.00;0.00;;;;;;;;;;5127910;27;20236;-71
2021/05/11 10:49:42;;;;;;;0.00;0.00;;;;;;;;;;5127509;27;20217;-71
2021/05/11 10:52:10;;;;;;;0.00;0.00;;;;;;;;;;5125948;28;20206;-72
2021/05/11 10:54:38;;;;;;;0.00;0.00;;;;;;;;;;5125951;28;20210;-70
2021/05/11 10:57:25;;;;;;;0.00;0.00;;;;;;;;;;5127031;27;20229;-70
2021/05/11 10:59:58;;;;;;;0.00;0.00;;;;;;;;;;5113017;28;20389;-72
2021/05/11 11:05:11;;;;;;;0.00;0.00;;;;;;;;;;5113749;27;20210;-71
2021/05/11 11:07:38;;;;;;;0.00;0.00;;;;;;;;;;5117539;27;20217;-71
2021/05/11 11:10:07;;;;;;;0.00;0.00;;;;;;;;;;5117193;27;20230;-72
2021/05/11 11:12:35;;;;;;;0.00;0.00;;;;;;;;;;5117886;28;20369;-70
2021/05/11 11:15:03;;;;;;;0.03;0.03;;;;;;;;;;5118990;28;20202;-69
2021/05/11 11:17:29;;;;;;;0.00;0.00;;;;;;;;;;5118071;28;20233;-70
2021/05/11 11:19:59;;;;;;;0.00;0.00;;;;;;;;;;5117070;28;20261;-69
2021/05/11 11:25:13;;;;;;;0.00;0.00;;;;;;;;;;5114305;28;20258;-70
2021/05/11 11:27:39;;;;;;;0.00;0.00;;;;;;;;;;5118011;28;20202;-71
2021/05/11 11:30:06;;;;;;;0.00;0.00;;;;;;;;;;5114181;28;20213;-70
2021/05/11 11:32:33;;;;;;;0.00;0.00;;;;;;;;;;5114561;28;20271;-72
2021/05/11 11:34:59;;;;;;;0.00;0.00;;;;;;;;;;5120868;27;20277;-71
2021/05/11 11:37:27;;;;;;;0.00;0.00;;;;;;;;;;5117738;27;20207;-70
2021/05/11 11:39:53;;;;;;;0.00;0.00;;;;;;;;;;5124943;27;20532;-71
2021/05/11 11:42:21;;;;;;;0.00;0.00;;;;;;;;;;5124745;27;20222;-69
2021/05/11 11:44:49;;;;;;;0.00;0.00;;;;;;;;;;5121969;27;20217;-74
2021/05/11 11:47:15;;;;;;;0.00;0.00;;;;;;;;;;5116705;28;20198;-70
2021/05/11 11:49:44;;;;;;;0.00;0.00;;;;;;;;;;5120549;28;20391;-69
2021/05/11 11:52:13;;;;;;;0.00;0.00;;;;;;;;;;5116062;28;20215;-70
2021/05/11 11:54:40;;;;;;;0.00;0.00;;;;;;;;;;5121413;27;20217;-71
2021/05/11 12:00:04;;;;;;;0.00;0.00;;;;;;;;;;5117262;28;20197;-70
2021/05/11 12:02:30;;;;;;;0.00;0.00;;;;;;;;;;5109361;27;20224;-72
2021/05/11 12:04:56;;;;;;;0.00;0.00;;;;;;;;;;5115658;28;20271;-68
2021/05/11 12:07:24;;;;;;;0.00;0.00;;;;;;;;;;5115449;28;20533;-69
2021/05/11 12:09:50;;;;;;;0.00;0.00;;;;;;;;;;5117611;28;20233;-71
2021/05/11 12:12:16;;;;;;;0.00;0.00;;;;;;;;;;5113130;28;20207;-68
2021/05/11 12:14:42;;;;;;;0.00;0.00;;;;;;;;;;5117866;28;20432;-71
2021/05/11 12:17:09;;;;;;;0.00;0.00;;;;;;;;;;5118023;28;20214;-70
2021/05/11 12:19:42;;;;;;;0.00;0.00;;;;;;;;;;5112342;28;20500;-68
2021/05/11 12:22:08;;;;;;;0.00;0.00;;;;;;;;;;5114997;28;20268;-68
2021/05/11 12:24:34;;;;;;;0.00;0.00;;;;;;;;;;5116857;28;20206;-68
2021/05/11 12:27:10;;;;;;;0.00;0.00;;;;;;;;;;5113843;28;20268;-66
2021/05/11 12:29:36;;;;;;;0.00;0.00;;;;;;;;;;5108868;28;20233;-67
2021/05/11 12:32:02;;;;;;;0.00;0.00;;;;;;;;;;5117072;28;20222;-66
2021/05/11 12:34:29;;;;;;;0.00;0.00;;;;;;;;;;5117483;28;20206;-68
2021/05/11 12:36:56;;;;;;;0.00;0.00;;;;;;;;;;5114684;28;20289;-68
2021/05/11 12:39:42;;;;;;;0.00;0.00;;;;;;;;;;5121339;28;20293;-70
2021/05/11 12:42:18;;;;;;;0.00;0.00;;;;;;;;;;5117753;28;20233;-70
2021/05/11 12:44:44;;;;;;;0.00;0.00;;;;;;;;;;5116212;28;20213;-68
2021/05/11 12:47:10;;;;;;;0.00;0.00;;;;;;;;;;5109673;28;20198;-69
2021/05/11 12:49:37;;;;;;;0.00;0.00;;;;;;;;;;5115172;28;20249;-71
2021/05/11 12:52:05;;;;;;;0.00;0.00;;;;;;;;;;5118785;28;20277;-71
2021/05/11 12:54:34;;;;;;;0.00;0.00;;;;;;;;;;5118780;28;20269;-71
2021/05/11 12:59:54;;;;;;;0.00;0.00;;;;;;;;;;5110997;28;20307;-70
2021/05/11 13:02:34;;;;;;;0.00;0.00;;;;;;;;;;5123477;28;20568;-69
2021/05/11 13:09:22;;;;;;;0.00;0.00;;;;;;;;;;5112525;28;20243;-70
2021/05/11 13:16:27;;;;;;;0.00;0.00;;;;;;;;;;5121652;28;20545;-69
2021/05/11 13:21:52;;;;;;;0.00;0.00;;;;;;;;;;5136628;28;20415;-69
2021/05/11 13:27:07;;;;;;;0.00;0.00;;;;;;;;;;5110115;28;20258;-69
2021/05/11 13:29:43;;;;;;;0.00;0.00;;;;;;;;;;5124100;28;20474;-69
2021/05/11 13:32:15;;;;;;;0.00;0.00;;;;;;;;;;5130798;27;20225;-71
2021/05/11 13:34:41;;;;;;;0.00;0.00;;;;;;;;;;5124044;28;20240;-69
2021/05/11 13:37:07;;;;;;;0.00;0.00;;;;;;;;;;5132763;27;20497;-71
2021/05/11 13:39:34;;;;;;;0.00;0.00;;;;;;;;;;5147702;27;20217;-71
2021/05/11 13:42:00;;;;;;;0.00;0.00;;;;;;;;;;5131509;27;20233;-70
2021/05/11 13:44:25;;;;;;;0.00;0.00;;;;;;;;;;5127317;27;20531;-70
2021/05/11 13:46:51;;;;;;;0.00;0.00;;;;;;;;;;5127917;27;20210;-70
2021/05/11 13:49:19;;;;;;;0.00;0.00;;;;;;;;;;5126209;27;20222;-69
2021/05/11 13:51:45;;;;;;;0.00;0.00;;;;;;;;;;5132385;27;20213;-69
2021/05/11 13:54:14;;;;;;;0.00;0.00;;;;;;;;;;5126835;28;20212;-69
2021/05/11 13:56:49;;;;;;;0.00;0.00;;;;;;;;;;5134157;27;20424;-70
2021/05/11 14:04:39;;;;;;;0.00;0.00;;;;;;;;;;5131405;27;20296;-70
2021/05/11 14:07:06;;;;;;;0.00;0.00;;;;;;;;;;5126630;28;20247;-70
2021/05/11 14:09:32;;;;;;;0.00;0.00;;;;;;;;;;5126392;28;20214;-69
2021/05/11 14:11:59;;;;;;;0.00;0.00;;;;;;;;;;5129671;27;20424;-70
2021/05/11 14:14:25;;;;;;;0.00;0.00;;;;;;;;;;5129642;27;20202;-71
2021/05/11 14:16:51;;;;;;;0.00;0.00;;;;;;;;;;5126688;28;20416;-69
2021/05/11 14:19:18;;;;;;;0.00;0.00;;;;;;;;;;5133074;27;20231;-70
2021/05/11 14:21:45;;;;;;;0.10;0.10;;;;;;;;;;5126213;28;20198;-71
2021/05/11 14:24:11;;;;;;;0.00;0.00;;;;;;;;;;5126389;28;20209;-69
2021/05/11 14:26:37;;;;;;;0.00;0.00;;;;;;;;;;5126217;28;20198;-69
2021/05/11 14:29:04;;;;;;;0.00;0.00;;;;;;;;;;5130179;27;20268;-71
2021/05/11 14:31:30;;;;;;;0.00;0.00;;;;;;;;;;5126486;28;20289;-70
2021/05/11 14:33:56;;;;;;;0.00;0.00;;;;;;;;;;5126270;28;20202;-68
2021/05/11 14:36:22;;;;;;;0.00;0.00;;;;;;;;;;5125893;28;20329;-69
2021/05/11 14:38:48;;;;;;;0.00;0.00;;;;;;;;;;5126227;28;20213;-69
2021/05/11 14:41:14;;;;;;;0.00;0.00;;;;;;;;;;5125717;28;20209;-70
2021/05/11 14:43:41;;;;;;;0.00;0.00;;;;;;;;;;5125966;28;20233;-70
2021/05/11 14:46:08;;;;;;;0.00;0.00;;;;;;;;;;5126058;28;20269;-69
2021/05/11 14:48:35;;;;;;;0.00;0.00;;;;;;;;;;5125792;28;20234;-69
2021/05/11 14:51:01;;;;;;;0.00;0.00;;;;;;;;;;5125183;27;20202;-70
2021/05/11 14:53:28;;;;;;;0.00;0.00;;;;;;;;;;5125987;27;20389;-70
2021/05/11 14:55:55;;;;;;;0.00;0.00;;;;;;;;;;5129661;27;20328;-70
2021/05/11 14:58:21;;;;;;;0.08;0.08;;;;;;;;;;5125477;28;20213;-70
2021/05/11 15:00:47;;;;;;;0.00;0.00;;;;;;;;;;5125654;28;20206;-69
2021/05/11 15:03:14;;;;;;;0.00;0.00;;;;;;;;;;5125705;28;20477;-70
2021/05/11 15:05:40;;;;;;;0.22;0.22;;;;;;;;;;5129333;27;20214;-70
2021/05/11 15:08:06;;;;;;;0.00;0.00;;;;;;;;;;5125272;28;20210;-71
2021/05/11 15:10:32;;;;;;;0.00;0.00;;;;;;;;;;5125457;28;20509;-70
2021/05/11 15:12:59;;;;;;;0.00;0.00;;;;;;;;;;5125604;28;20225;-69
2021/05/11 15:15:25;;;;;;;0.00;0.00;;;;;;;;;;5129459;27;20404;-68
2021/05/11 15:18:01;;;;;;;0.00;0.00;;;;;;;;;;5128955;27;20488;-67
2021/05/11 15:20:29;;;;;;;0.00;0.00;;;;;;;;;;5125123;28;20190;-70
2021/05/11 15:22:55;;;;;;;0.00;0.00;;;;;;;;;;5125171;28;20209;-69
2021/05/11 15:25:21;;;;;;;0.00;0.00;;;;;;;;;;5125018;28;20508;-70
2021/05/11 15:27:47;;;;;;;0.00;0.00;;;;;;;;;;5127143;27;20202;-71
2021/05/11 15:30:14;;;;;;;0.00;0.00;;;;;;;;;;5131037;27;20221;-70
2021/05/11 15:32:40;;;;;;;0.00;0.00;;;;;;;;;;5130700;27;20230;-69
2021/05/11 15:35:07;;;;;;;0.00;0.00;;;;;;;;;;5129036;27;20214;-70
2021/05/11 15:37:34;;;;;;;0.00;0.00;;;;;;;;;;5124777;28;20213;-69
2021/05/11 15:40:00;;;;;;;0.00;0.00;;;;;;;;;;5124814;28;20208;-69
2021/05/11 15:42:27;;;;;;;0.00;0.00;;;;;;;;;;5124986;28;20225;-69
2021/05/11 15:44:52;;;;;;;0.17;0.17;;;;;;;;;;5124925;28;20206;-70
2021/05/11 15:47:18;;;;;;;0.00;0.00;;;;;;;;;;5124525;28;20236;-70
2021/05/11 15:49:45;;;;;;;0.52;0.52;;;;;;;;;;5124513;28;20230;-70
2021/05/11 15:52:11;;;;;;;1.60;1.60;;;;;;;;;;5123689;28;20208;-70
2021/05/11 15:54:37;;;;;;;0.00;0.00;;;;;;;;;;5124777;28;20305;-70
2021/05/11 15:57:03;;;;;;;0.00;0.00;;;;;;;;;;5123601;27;20238;-70
2021/05/11 15:59:29;;;;;;;0.03;0.03;;;;;;;;;;5121918;28;20198;-70
2021/05/11 16:01:55;;;;;;;0.00;0.00;;;;;;;;;;5124698;28;20508;-70
2021/05/11 16:04:21;;;;;;;0.00;0.00;;;;;;;;;;5124363;28;20261;-70
2021/05/11 16:06:47;;;;;;;0.20;0.20;;;;;;;;;;5124188;28;20461;-72
2021/05/11 16:09:13;;;;;;;0.00;0.00;;;;;;;;;;5124480;28;20217;-73
2021/05/11 16:11:40;;;;;;;0.00;0.00;;;;;;;;;;5124044;28;20210;-70
2021/05/11 16:14:06;;;;;;;0.00;0.00;;;;;;;;;;5124189;28;20267;-70
2021/05/11 16:16:32;;;;;;;0.17;0.17;;;;;;;;;;5123967;28;20505;-70
2021/05/11 16:18:57;;;;;;;0.00;0.00;;;;;;;;;;5137730;27;20251;-70
2021/05/11 16:21:23;;;;;;;0.00;0.00;;;;;;;;;;5128688;27;20210;-70
2021/05/11 16:23:49;;;;;;;0.00;0.00;;;;;;;;;;5124293;28;20198;-71
2021/05/11 16:26:15;;;;;;;0.00;0.00;;;;;;;;;;5138442;27;20268;-70
2021/05/11 16:28:42;;;;;;;0.00;0.00;;;;;;;;;;5118837;28;20289;-70
2021/05/11 16:31:08;;;;;;;0.00;0.00;;;;;;;;;;5124344;28;20236;-71
2021/05/11 16:33:35;;;;;;;0.03;0.03;;;;;;;;;;5133120;27;20209;-71
2021/05/11 16:36:01;;;;;;;0.00;0.00;;;;;;;;;;5124073;28;20236;-71
2021/05/11 16:38:26;;;;;;;0.00;0.00;;;;;;;;;;5124243;28;20198;-70
2021/05/11 16:40:54;;;;;;;0.00;0.00;;;;;;;;;;5123876;28;20206;-70
2021/05/11 16:43:22;;;;;;;1.33;0.52;;;;;;;;;;5124130;28;20511;-71
2021/05/11 16:45:49;;;;;;;0.17;0.17;;;;;;;;;;5123719;28;20261;-69
2021/05/11 16:48:16;;;;;;;2.10;1.95;;;;;;;;;;5123613;28;20206;-70
2021/05/11 16:50:42;;;;;;;0.00;0.00;;;;;;;;;;5112124;28;20445;-70
2021/05/11 16:53:12;;;;;;;0.15;0.15;;;;;;;;;;5122907;28;20202;-70
2021/05/11 16:55:38;;;;;;;0.00;0.00;;;;;;;;;;5124265;28;20270;-70
2021/05/11 16:58:04;;;;;;;0.00;0.00;;;;;;;;;;5123954;28;20206;-71
2021/05/11 17:00:31;;;;;;;0.00;0.00;;;;;;;;;;5134152;28;20194;-71
2021/05/11 17:03:02;;;;;;;20.10;19.02;;;;;;;;;;5126130;28;20198;-70
2021/05/11 17:05:28;;;;;;;1.23;1.15;;;;;;;;;;5123516;28;20210;-72
2021/05/11 17:07:55;;;;;;;0.00;0.00;;;;;;;;;;5129546;28;20198;-70
2021/05/11 17:10:21;;;;;;;0.05;0.05;;;;;;;;;;5128633;27;20516;-70
2021/05/11 17:12:48;;;;;;;0.00;0.00;;;;;;;;;;5138712;27;20257;-72
2021/05/11 17:15:15;;;;;;;0.00;0.00;;;;;;;;;;5130562;27;20536;-71
2021/05/11 17:17:41;;;;;;;0.00;0.00;;;;;;;;;;5129889;27;20505;-72
2021/05/11 17:20:09;;;;;;;0.00;0.00;;;;;;;;;;5135964;27;20229;-70
2021/05/11 17:22:35;;;;;;;0.20;0.20;;;;;;;;;;5127575;27;20225;-71
2021/05/11 17:25:01;;;;;;;0.00;0.00;;;;;;;;;;5131153;27;20377;-70
2021/05/11 17:27:29;;;;;;;0.00;0.00;;;;;;;;;;5131388;27;20197;-70
2021/05/11 17:29:55;;;;;;;0.00;0.00;;;;;;;;;;5130169;27;20218;-70
2021/05/11 17:32:21;;;;;;;0.00;0.00;;;;;;;;;;5135765;27;20411;-71
2021/05/11 17:34:46;;;;;;;0.65;0.65;;;;;;;;;;5128506;27;20198;-70
2021/05/11 17:37:13;;;;;;;0.00;0.00;;;;;;;;;;5126600;27;20269;-71
2021/05/11 17:39:39;;;;;;;0.10;0.10;;;;;;;;;;5127000;28;20485;-72
2021/05/11 17:42:08;;;;;;;0.00;0.00;;;;;;;;;;5126846;27;20214;-71
2021/05/11 17:44:34;;;;;;;0.00;0.00;;;;;;;;;;5129882;27;20198;-71
2021/05/11 17:46:59;;;;;;;0.57;0.57;;;;;;;;;;5126833;28;20370;-71
2021/05/11 17:49:25;;;;;;;0.00;0.00;;;;;;;;;;5126596;28;20222;-71
2021/05/11 17:51:51;;;;;;;0.00;0.00;;;;;;;;;;5129008;27;20209;-70
2021/05/11 17:54:18;;;;;;;0.05;0.05;;;;;;;;;;5130988;27;20234;-71
2021/05/11 17:56:43;;;;;;;5.28;0.90;;;;;;;;;;5135278;27;20445;-71